List of candidates in the order of merit called for Medical Examination for teh post of Junior Engineer (Civil & Tack) List of candidates in the order of merit called for Psychometric Test for the post of SC/TO Admit Card Downloading Link - SCTO & JE (Civil) -09th March 2024 For the posts having "NIL/Zero" Experience required, the candidate may submit a pdf document mentioning as fresher for proceeding with the application. Site under modification. Vacancies will be published soon.

Opportunities

To know the detailed description of a Notification, please click on the Notification Ref. link on each row. To know more details of the post such as Qualification required, Experience requirement, Scale of Pay, Max Age, etc. please click on button, which is shown against each post (on the right side of the table, beside 'Apply Now' button). Then proceed after reading the instructions.

No open vacancies now!.
Sl.No. Company Notification Date Notification Ref. Vac. Type Vac. ID Vacancy Name No of Vacancies Appl. Start Date Appl. End Date
 
1 KMRL 07 Mar 2024 KMRL/HR/2023-24/28 Contract 382 JGM/ACE(sewerage works) 1 07 Mar 2024 5:15 pm 02 Apr 2024 11:59 pm      Under Process
2 KMRL 02 Jan 2024 KMRL/HR/2023-24/23 Regular 375 AM (PR & Events) 1 02 Jan 2024 5:43 pm 17 Jan 2024 11:59 pm      Under Process
3 KMRL 02 Jan 2024 : KMRL/HR/2023-24/24 Contract 376 Executive (E&M) 1 02 Jan 2024 5:43 pm 17 Jan 2024 11:59 pm      Under Process
4 KMRL 02 Jan 2024 KMRL/HR/2023-24/25 Contract 377 Executive (L&E) 1 02 Jan 2024 5:43 pm 17 Jan 2024 5:44 pm      Under Process
5 KMRL 22 Nov 2023 KMRL/HR/2023-24/20 Regular 372 AGM (Commercial & Marketing) 1 22 Nov 2023 10:00 am 13 Dec 2023 11:59 pm      Under Process
6 KMRL 23 Nov 2023 KMRL/HR/2023-24/21 Contract 373 Manager (Civil) 1 22 Nov 2023 10:00 am 06 Dec 2023 11:59 pm      Under Process
7 KMRL 07 Nov 2023 KMRL/HR/2023-24/19 Contract 371 JGM (Sewerage Works) 1 07 Nov 2023 10:38 am 21 Nov 2023 11:59 pm      Under Process
8 KMRL 31 Oct 2023 KMRL/HR/2023-24/15 Contract 367 JE/ASE Telecom/AFC 2 31 Oct 2023 3:36 pm 15 Nov 2023 11:59 pm      Under Process
9 KMRL 31 Oct 2023 KMRL/HR/2023-24/16 Contract 368 JE/ASE Signalling 2 31 Oct 2023 3:36 pm 15 Nov 2023 11:59 pm      Under Process
10 KMRL 31 Oct 2023 KMRL/HR/2023-24/18 Contract 370 AM Safety 1 31 Oct 2023 5:31 pm 15 Nov 2023 11:59 pm      Under Process
1 to 10 of 13 Records
Results per page
Sl.No. Company Notification Date Notification Ref. Vac. Type Vac. ID Vacancy Name No of Vacancies Appl. Start Date Appl. End Date
f   
21 KMRL 22 Jun 2022 KMRL/HR/2022-23/05 Regular 304 E1/E2 (AFC) 1 22 Jun 2022 10:00 am 13 Jul 2022 11:59 pm      Selected
22 KMRL 22 Jun 2022 KMRL/HR/2022-23/05 Regular 305 E1/E2 (Power & Traction) 1 22 Jun 2022 10:00 am 13 Jul 2022 11:59 pm      Selected
23 KMRL 04 May 2022 KMRL/ HR/FTC/2022-23/04 FTC 302 Engineer/Sr. Engineer (Electrical) 1 04 May 2022 9:00 am 18 May 2022 11:59 pm      Selected
24 KMRL 19 Apr 2022 KMRL/HR/2022-23/03 Regular 299 JGM-E6/AGM-E7/GM-E8 (Operations & Maintenance) 1 19 Apr 2022 9:30 am 11 May 2022 11:59 pm      Cancelled
25 KMRL 19 Apr 2022 KMRL/HR/2022-23/02 Regular 300 JGM-E6/AGM-E7/GM-E8 (Rolling Stock & Electrical) 1 19 Apr 2022 9:30 am 11 May 2022 11:59 pm      Cancelled
26 KMRL 01 Apr 2022 KMRL/HR/2022-23/01 Regular 298 JE (AutoCad) 1 01 Apr 2022 10:00 am 20 Apr 2022 11:59 pm      None found suitable
27 KMRL 16 Mar 2022 KMRL/HR/2021-22/10 Contract 296 DIRECTOR (PROJECTS) 1 02 Mar 2022 11:47 am 19 Apr 2022 11:59 pm      Selected
28 KMRL 16 Mar 2022 KMRL/HR/2021-22/11 Contract 297 DIRECTOR (FINANCE) 1 02 Mar 2022 11:47 am 19 Apr 2022 11:59 pm      Selected
29 KMRL 01 Feb 2022 KMRL/HR/2021-22/05 Contract 291 DIRECTOR (PROJECTS) 1 01 Feb 2022 12:00 am 08 Mar 2022 11:59 pm      Selected
30 KMRL 01 Feb 2022 KMRL/HR/2021-22/06 Contract 292 DIRECTOR (FINANCE) 1 01 Feb 2022 12:00 am 08 Mar 2022 11:59 pm      Selected
21 to 30 of 229 Records
Results per page